sensor_id;sensor_type;location;lat;lon;timestamp;P1;durP1;ratioP1;P2;durP2;ratioP2
61112;SDS011;47184;57.998;56.184;2023-08-17T00:00:44;0.00;;;0.00;;
61112;SDS011;47184;57.998;56.184;2023-08-17T00:03:10;0.00;;;0.00;;
61112;SDS011;47184;57.998;56.184;2023-08-17T00:05:37;0.00;;;0.00;;
61112;SDS011;47184;57.998;56.184;2023-08-17T00:08:03;0.00;;;0.00;;
61112;SDS011;47184;57.998;56.184;2023-08-17T00:10:29;0.00;;;0.00;;
61112;SDS011;47184;57.998;56.184;2023-08-17T00:12:55;0.00;;;0.00;;
61112;SDS011;47184;57.998;56.184;2023-08-17T00:15:21;0.00;;;0.00;;
61112;SDS011;47184;57.998;56.184;2023-08-17T00:17:47;0.00;;;0.00;;
61112;SDS011;47184;57.998;56.184;2023-08-17T00:20:14;0.00;;;0.00;;
61112;SDS011;47184;57.998;56.184;2023-08-17T00:22:40;0.00;;;0.00;;
61112;SDS011;47184;57.998;56.184;2023-08-17T00:25:07;0.00;;;0.00;;
61112;SDS011;47184;57.998;56.184;2023-08-17T00:27:33;0.00;;;0.00;;
61112;SDS011;47184;57.998;56.184;2023-08-17T00:30:01;0.00;;;0.00;;
61112;SDS011;47184;57.998;56.184;2023-08-17T00:32:30;0.00;;;0.00;;
61112;SDS011;47184;57.998;56.184;2023-08-17T00:34:56;0.00;;;0.00;;
61112;SDS011;47184;57.998;56.184;2023-08-17T00:37:22;0.00;;;0.00;;
61112;SDS011;47184;57.998;56.184;2023-08-17T00:39:48;0.00;;;0.00;;
61112;SDS011;47184;57.998;56.184;2023-08-17T00:42:14;0.00;;;0.00;;
61112;SDS011;47184;57.998;56.184;2023-08-17T00:44:41;0.00;;;0.00;;
61112;SDS011;47184;57.998;56.184;2023-08-17T00:47:07;0.00;;;0.00;;
61112;SDS011;47184;57.998;56.184;2023-08-17T00:49:34;0.00;;;0.00;;
61112;SDS011;47184;57.998;56.184;2023-08-17T00:52:01;0.00;;;0.00;;
61112;SDS011;47184;57.998;56.184;2023-08-17T00:54:28;0.00;;;0.00;;
61112;SDS011;47184;57.998;56.184;2023-08-17T00:56:55;0.00;;;0.00;;
61112;SDS011;47184;57.998;56.184;2023-08-17T00:59:22;0.00;;;0.00;;
61112;SDS011;47184;57.998;56.184;2023-08-17T01:01:49;0.00;;;0.00;;
61112;SDS011;47184;57.998;56.184;2023-08-17T01:04:15;0.00;;;0.00;;
61112;SDS011;47184;57.998;56.184;2023-08-17T01:06:42;0.00;;;0.00;;
61112;SDS011;47184;57.998;56.184;2023-08-17T01:09:08;0.00;;;0.00;;
61112;SDS011;47184;57.998;56.184;2023-08-17T01:11:44;0.00;;;0.00;;
61112;SDS011;47184;57.998;56.184;2023-08-17T01:17:48;0.00;;;0.00;;
61112;SDS011;47184;57.998;56.184;2023-08-17T01:20:22;0.00;;;0.00;;
61112;SDS011;47184;57.998;56.184;2023-08-17T01:22:49;0.00;;;0.00;;
61112;SDS011;47184;57.998;56.184;2023-08-17T01:25:17;0.00;;;0.00;;
61112;SDS011;47184;57.998;56.184;2023-08-17T01:27:45;0.00;;;0.00;;
61112;SDS011;47184;57.998;56.184;2023-08-17T01:30:13;0.00;;;0.00;;
61112;SDS011;47184;57.998;56.184;2023-08-17T01:32:54;0.00;;;0.00;;
61112;SDS011;47184;57.998;56.184;2023-08-17T01:35:30;0.00;;;0.00;;
61112;SDS011;47184;57.998;56.184;2023-08-17T01:38:18;0.00;;;0.00;;
61112;SDS011;47184;57.998;56.184;2023-08-17T01:40:47;0.17;;;0.00;;
61112;SDS011;47184;57.998;56.184;2023-08-17T01:43:16;0.00;;;0.00;;
61112;SDS011;47184;57.998;56.184;2023-08-17T01:45:44;0.00;;;0.00;;
61112;SDS011;47184;57.998;56.184;2023-08-17T01:48:10;0.10;;;0.00;;
61112;SDS011;47184;57.998;56.184;2023-08-17T01:50:36;0.03;;;0.00;;
61112;SDS011;47184;57.998;56.184;2023-08-17T01:53:02;0.00;;;0.00;;
61112;SDS011;47184;57.998;56.184;2023-08-17T01:55:28;0.00;;;0.00;;
61112;SDS011;47184;57.998;56.184;2023-08-17T01:57:55;0.00;;;0.00;;
61112;SDS011;47184;57.998;56.184;2023-08-17T02:00:21;0.00;;;0.00;;
61112;SDS011;47184;57.998;56.184;2023-08-17T02:02:47;0.00;;;0.00;;
61112;SDS011;47184;57.998;56.184;2023-08-17T02:05:13;0.00;;;0.00;;
61112;SDS011;47184;57.998;56.184;2023-08-17T02:07:39;0.00;;;0.00;;
61112;SDS011;47184;57.998;56.184;2023-08-17T02:10:05;0.00;;;0.00;;
61112;SDS011;47184;57.998;56.184;2023-08-17T02:12:32;0.55;;;0.00;;
61112;SDS011;47184;57.998;56.184;2023-08-17T02:14:58;0.00;;;0.00;;
61112;SDS011;47184;57.998;56.184;2023-08-17T02:17:24;0.00;;;0.00;;
61112;SDS011;47184;57.998;56.184;2023-08-17T02:19:50;0.00;;;0.00;;
61112;SDS011;47184;57.998;56.184;2023-08-17T02:22:16;0.00;;;0.00;;
61112;SDS011;47184;57.998;56.184;2023-08-17T02:24:42;0.00;;;0.00;;
61112;SDS011;47184;57.998;56.184;2023-08-17T02:27:09;0.10;;;0.00;;
61112;SDS011;47184;57.998;56.184;2023-08-17T02:29:35;0.00;;;0.00;;
61112;SDS011;47184;57.998;56.184;2023-08-17T02:32:02;0.00;;;0.00;;
61112;SDS011;47184;57.998;56.184;2023-08-17T02:34:28;0.00;;;0.00;;
61112;SDS011;47184;57.998;56.184;2023-08-17T02:36:54;0.00;;;0.00;;
61112;SDS011;47184;57.998;56.184;2023-08-17T02:39:20;0.08;;;0.00;;
61112;SDS011;47184;57.998;56.184;2023-08-17T02:41:46;0.00;;;0.00;;
61112;SDS011;47184;57.998;56.184;2023-08-17T02:44:16;0.00;;;0.00;;
61112;SDS011;47184;57.998;56.184;2023-08-17T02:46:42;0.10;;;0.00;;
61112;SDS011;47184;57.998;56.184;2023-08-17T02:49:08;0.00;;;0.00;;
61112;SDS011;47184;57.998;56.184;2023-08-17T02:51:34;0.65;;;0.10;;
61112;SDS011;47184;57.998;56.184;2023-08-17T02:54:00;0.00;;;0.00;;
61112;SDS011;47184;57.998;56.184;2023-08-17T02:56:26;0.38;;;0.00;;
61112;SDS011;47184;57.998;56.184;2023-08-17T02:58:52;0.00;;;0.00;;
61112;SDS011;47184;57.998;56.184;2023-08-17T03:01:18;0.10;;;0.00;;
61112;SDS011;47184;57.998;56.184;2023-08-17T03:03:45;0.00;;;0.00;;
61112;SDS011;47184;57.998;56.184;2023-08-17T03:06:11;0.28;;;0.03;;
61112;SDS011;47184;57.998;56.184;2023-08-17T03:08:39;0.00;;;0.00;;
61112;SDS011;47184;57.998;56.184;2023-08-17T03:11:08;0.28;;;0.10;;
61112;SDS011;47184;57.998;56.184;2023-08-17T03:13:36;0.03;;;0.00;;
61112;SDS011;47184;57.998;56.184;2023-08-17T03:16:02;0.10;;;0.00;;
61112;SDS011;47184;57.998;56.184;2023-08-17T03:18:29;0.00;;;0.00;;
61112;SDS011;47184;57.998;56.184;2023-08-17T03:20:55;0.10;;;0.00;;
61112;SDS011;47184;57.998;56.184;2023-08-17T03:23:21;0.00;;;0.00;;
61112;SDS011;47184;57.998;56.184;2023-08-17T03:25:51;0.00;;;0.00;;
61112;SDS011;47184;57.998;56.184;2023-08-17T03:28:20;0.00;;;0.00;;
61112;SDS011;47184;57.998;56.184;2023-08-17T03:30:46;0.00;;;0.00;;
61112;SDS011;47184;57.998;56.184;2023-08-17T03:33:12;0.10;;;0.00;;
61112;SDS011;47184;57.998;56.184;2023-08-17T03:35:38;0.00;;;0.00;;
61112;SDS011;47184;57.998;56.184;2023-08-17T03:38:07;0.08;;;0.00;;
61112;SDS011;47184;57.998;56.184;2023-08-17T03:40:33;0.00;;;0.00;;
61112;SDS011;47184;57.998;56.184;2023-08-17T03:43:00;0.00;;;0.00;;
61112;SDS011;47184;57.998;56.184;2023-08-17T03:45:28;0.10;;;0.00;;
61112;SDS011;47184;57.998;56.184;2023-08-17T03:47:56;0.00;;;0.00;;
61112;SDS011;47184;57.998;56.184;2023-08-17T03:50:22;0.00;;;0.00;;
61112;SDS011;47184;57.998;56.184;2023-08-17T03:52:48;0.00;;;0.00;;
61112;SDS011;47184;57.998;56.184;2023-08-17T03:55:14;0.00;;;0.00;;
61112;SDS011;47184;57.998;56.184;2023-08-17T03:57:41;0.10;;;0.00;;
61112;SDS011;47184;57.998;56.184;2023-08-17T04:00:09;0.03;;;0.00;;
61112;SDS011;47184;57.998;56.184;2023-08-17T04:02:42;0.00;;;0.00;;
61112;SDS011;47184;57.998;56.184;2023-08-17T04:07:41;0.00;;;0.00;;
61112;SDS011;47184;57.998;56.184;2023-08-17T04:10:07;0.00;;;0.00;;
61112;SDS011;47184;57.998;56.184;2023-08-17T04:12:35;0.00;;;0.00;;
61112;SDS011;47184;57.998;56.184;2023-08-17T04:15:05;0.00;;;0.00;;
61112;SDS011;47184;57.998;56.184;2023-08-17T04:17:32;0.00;;;0.00;;
61112;SDS011;47184;57.998;56.184;2023-08-17T04:19:58;0.00;;;0.00;;
61112;SDS011;47184;57.998;56.184;2023-08-17T04:22:25;0.20;;;0.00;;
61112;SDS011;47184;57.998;56.184;2023-08-17T04:24:52;0.00;;;0.00;;
61112;SDS011;47184;57.998;56.184;2023-08-17T04:27:18;0.10;;;0.00;;
61112;SDS011;47184;57.998;56.184;2023-08-17T04:29:46;1.30;;;0.00;;
61112;SDS011;47184;57.998;56.184;2023-08-17T04:32:14;0.00;;;0.00;;
61112;SDS011;47184;57.998;56.184;2023-08-17T04:34:43;0.00;;;0.00;;
61112;SDS011;47184;57.998;56.184;2023-08-17T04:37:12;0.38;;;0.00;;
61112;SDS011;47184;57.998;56.184;2023-08-17T04:39:39;0.00;;;0.00;;
61112;SDS011;47184;57.998;56.184;2023-08-17T04:42:06;0.00;;;0.00;;
61112;SDS011;47184;57.998;56.184;2023-08-17T04:44:33;0.00;;;0.00;;
61112;SDS011;47184;57.998;56.184;2023-08-17T04:47:01;0.00;;;0.00;;
61112;SDS011;47184;57.998;56.184;2023-08-17T04:49:28;0.20;;;0.00;;
61112;SDS011;47184;57.998;56.184;2023-08-17T04:51:57;0.05;;;0.00;;
61112;SDS011;47184;57.998;56.184;2023-08-17T04:54:23;0.00;;;0.00;;
61112;SDS011;47184;57.998;56.184;2023-08-17T04:56:49;0.00;;;0.00;;
61112;SDS011;47184;57.998;56.184;2023-08-17T04:59:16;0.00;;;0.00;;
61112;SDS011;47184;57.998;56.184;2023-08-17T05:01:43;0.00;;;0.00;;
61112;SDS011;47184;57.998;56.184;2023-08-17T05:04:11;0.00;;;0.00;;
61112;SDS011;47184;57.998;56.184;2023-08-17T05:06:37;0.00;;;0.00;;
61112;SDS011;47184;57.998;56.184;2023-08-17T05:09:04;0.00;;;0.00;;
61112;SDS011;47184;57.998;56.184;2023-08-17T05:11:30;0.00;;;0.00;;
61112;SDS011;47184;57.998;56.184;2023-08-17T05:13:57;0.00;;;0.00;;
61112;SDS011;47184;57.998;56.184;2023-08-17T05:16:24;0.00;;;0.00;;
61112;SDS011;47184;57.998;56.184;2023-08-17T05:18:50;0.00;;;0.00;;
61112;SDS011;47184;57.998;56.184;2023-08-17T05:21:17;0.00;;;0.00;;
61112;SDS011;47184;57.998;56.184;2023-08-17T05:23:43;0.00;;;0.00;;
61112;SDS011;47184;57.998;56.184;2023-08-17T05:26:09;0.00;;;0.00;;
61112;SDS011;47184;57.998;56.184;2023-08-17T05:28:35;0.00;;;0.00;;
61112;SDS011;47184;57.998;56.184;2023-08-17T05:31:03;0.00;;;0.00;;
61112;SDS011;47184;57.998;56.184;2023-08-17T05:33:35;0.00;;;0.00;;
61112;SDS011;47184;57.998;56.184;2023-08-17T05:36:01;0.00;;;0.00;;
61112;SDS011;47184;57.998;56.184;2023-08-17T05:38:28;0.00;;;0.00;;
61112;SDS011;47184;57.998;56.184;2023-08-17T05:40:56;0.00;;;0.00;;
61112;SDS011;47184;57.998;56.184;2023-08-17T05:43:24;0.00;;;0.00;;
61112;SDS011;47184;57.998;56.184;2023-08-17T05:45:50;0.00;;;0.00;;
61112;SDS011;47184;57.998;56.184;2023-08-17T05:48:20;0.00;;;0.00;;
61112;SDS011;47184;57.998;56.184;2023-08-17T05:50:46;0.00;;;0.00;;
61112;SDS011;47184;57.998;56.184;2023-08-17T05:53:13;0.00;;;0.00;;
61112;SDS011;47184;57.998;56.184;2023-08-17T05:55:39;0.00;;;0.00;;
61112;SDS011;47184;57.998;56.184;2023-08-17T05:58:05;0.00;;;0.00;;
61112;SDS011;47184;57.998;56.184;2023-08-17T06:00:31;0.00;;;0.00;;
61112;SDS011;47184;57.998;56.184;2023-08-17T06:02:57;0.00;;;0.00;;
61112;SDS011;47184;57.998;56.184;2023-08-17T06:05:29;0.00;;;0.00;;
61112;SDS011;47184;57.998;56.184;2023-08-17T06:07:56;0.00;;;0.00;;
61112;SDS011;47184;57.998;56.184;2023-08-17T06:10:25;0.00;;;0.00;;
61112;SDS011;47184;57.998;56.184;2023-08-17T06:12:52;0.00;;;0.00;;
61112;SDS011;47184;57.998;56.184;2023-08-17T06:15:19;0.00;;;0.00;;
61112;SDS011;47184;57.998;56.184;2023-08-17T06:17:45;0.00;;;0.00;;
61112;SDS011;47184;57.998;56.184;2023-08-17T06:20:12;0.00;;;0.00;;
61112;SDS011;47184;57.998;56.184;2023-08-17T06:22:39;0.00;;;0.00;;
61112;SDS011;47184;57.998;56.184;2023-08-17T06:25:05;0.00;;;0.00;;
61112;SDS011;47184;57.998;56.184;2023-08-17T06:27:31;0.00;;;0.00;;
61112;SDS011;47184;57.998;56.184;2023-08-17T06:29:59;0.08;;;0.00;;
61112;SDS011;47184;57.998;56.184;2023-08-17T06:32:25;0.00;;;0.00;;
61112;SDS011;47184;57.998;56.184;2023-08-17T06:34:51;0.00;;;0.00;;
61112;SDS011;47184;57.998;56.184;2023-08-17T06:37:19;0.00;;;0.00;;
61112;SDS011;47184;57.998;56.184;2023-08-17T06:39:45;0.00;;;0.00;;
61112;SDS011;47184;57.998;56.184;2023-08-17T06:42:11;0.00;;;0.00;;
61112;SDS011;47184;57.998;56.184;2023-08-17T06:44:37;0.00;;;0.00;;
61112;SDS011;47184;57.998;56.184;2023-08-17T06:47:04;0.05;;;0.05;;
61112;SDS011;47184;57.998;56.184;2023-08-17T06:49:30;0.00;;;0.00;;
61112;SDS011;47184;57.998;56.184;2023-08-17T06:51:56;0.00;;;0.00;;
61112;SDS011;47184;57.998;56.184;2023-08-17T06:54:22;0.10;;;0.10;;
61112;SDS011;47184;57.998;56.184;2023-08-17T06:56:48;0.10;;;0.10;;
61112;SDS011;47184;57.998;56.184;2023-08-17T06:59:14;0.10;;;0.10;;
61112;SDS011;47184;57.998;56.184;2023-08-17T07:01:40;0.10;;;0.10;;
61112;SDS011;47184;57.998;56.184;2023-08-17T07:04:06;0.10;;;0.10;;
61112;SDS011;47184;57.998;56.184;2023-08-17T07:06:34;0.10;;;0.10;;
61112;SDS011;47184;57.998;56.184;2023-08-17T07:09:00;0.10;;;0.10;;
61112;SDS011;47184;57.998;56.184;2023-08-17T07:11:26;0.10;;;0.10;;
61112;SDS011;47184;57.998;56.184;2023-08-17T07:13:52;0.10;;;0.10;;
61112;SDS011;47184;57.998;56.184;2023-08-17T07:16:18;0.10;;;0.10;;
61112;SDS011;47184;57.998;56.184;2023-08-17T07:18:45;0.20;;;0.20;;
61112;SDS011;47184;57.998;56.184;2023-08-17T07:21:11;0.10;;;0.10;;
61112;SDS011;47184;57.998;56.184;2023-08-17T07:23:43;0.17;;;0.17;;
61112;SDS011;47184;57.998;56.184;2023-08-17T07:26:10;0.20;;;0.20;;
61112;SDS011;47184;57.998;56.184;2023-08-17T07:28:36;0.20;;;0.20;;
61112;SDS011;47184;57.998;56.184;2023-08-17T07:31:02;0.20;;;0.20;;
61112;SDS011;47184;57.998;56.184;2023-08-17T07:33:28;0.20;;;0.20;;
61112;SDS011;47184;57.998;56.184;2023-08-17T07:35:54;0.20;;;0.20;;
61112;SDS011;47184;57.998;56.184;2023-08-17T07:38:23;0.20;;;0.20;;
61112;SDS011;47184;57.998;56.184;2023-08-17T07:40:49;0.20;;;0.20;;
61112;SDS011;47184;57.998;56.184;2023-08-17T07:43:15;0.20;;;0.20;;
61112;SDS011;47184;57.998;56.184;2023-08-17T07:45:41;0.30;;;0.30;;
61112;SDS011;47184;57.998;56.184;2023-08-17T07:48:07;0.20;;;0.20;;
61112;SDS011;47184;57.998;56.184;2023-08-17T07:50:33;0.20;;;0.20;;
61112;SDS011;47184;57.998;56.184;2023-08-17T07:53:00;0.30;;;0.30;;
61112;SDS011;47184;57.998;56.184;2023-08-17T07:55:26;0.30;;;0.30;;
61112;SDS011;47184;57.998;56.184;2023-08-17T07:57:52;0.30;;;0.30;;
61112;SDS011;47184;57.998;56.184;2023-08-17T08:00:18;0.35;;;0.35;;
61112;SDS011;47184;57.998;56.184;2023-08-17T08:02:47;0.50;;;0.50;;
61112;SDS011;47184;57.998;56.184;2023-08-17T08:05:13;0.30;;;0.30;;
61112;SDS011;47184;57.998;56.184;2023-08-17T08:07:39;0.40;;;0.40;;
61112;SDS011;47184;57.998;56.184;2023-08-17T08:10:06;0.30;;;0.30;;
61112;SDS011;47184;57.998;56.184;2023-08-17T08:12:33;0.40;;;0.40;;
61112;SDS011;47184;57.998;56.184;2023-08-17T08:14:59;0.30;;;0.30;;
61112;SDS011;47184;57.998;56.184;2023-08-17T08:17:25;0.30;;;0.30;;
61112;SDS011;47184;57.998;56.184;2023-08-17T08:19:52;0.30;;;0.30;;
61112;SDS011;47184;57.998;56.184;2023-08-17T08:22:19;0.30;;;0.30;;
61112;SDS011;47184;57.998;56.184;2023-08-17T08:24:45;0.38;;;0.38;;
61112;SDS011;47184;57.998;56.184;2023-08-17T08:27:11;0.40;;;0.40;;
61112;SDS011;47184;57.998;56.184;2023-08-17T08:29:39;0.32;;;0.32;;
61112;SDS011;47184;57.998;56.184;2023-08-17T08:32:05;0.30;;;0.30;;
61112;SDS011;47184;57.998;56.184;2023-08-17T08:34:31;0.28;;;0.28;;
61112;SDS011;47184;57.998;56.184;2023-08-17T08:36:57;0.40;;;0.40;;
61112;SDS011;47184;57.998;56.184;2023-08-17T08:39:25;0.30;;;0.30;;
61112;SDS011;47184;57.998;56.184;2023-08-17T08:41:52;0.30;;;0.30;;
61112;SDS011;47184;57.998;56.184;2023-08-17T08:44:19;0.40;;;0.40;;
61112;SDS011;47184;57.998;56.184;2023-08-17T08:46:45;0.20;;;0.20;;
61112;SDS011;47184;57.998;56.184;2023-08-17T08:49:11;0.30;;;0.30;;
61112;SDS011;47184;57.998;56.184;2023-08-17T08:51:40;0.40;;;0.40;;
61112;SDS011;47184;57.998;56.184;2023-08-17T08:54:11;0.30;;;0.30;;
61112;SDS011;47184;57.998;56.184;2023-08-17T08:56:44;0.30;;;0.30;;
61112;SDS011;47184;57.998;56.184;2023-08-17T08:59:11;0.40;;;0.40;;
61112;SDS011;47184;57.998;56.184;2023-08-17T09:01:38;0.30;;;0.30;;
61112;SDS011;47184;57.998;56.184;2023-08-17T09:04:04;0.30;;;0.30;;
61112;SDS011;47184;57.998;56.184;2023-08-17T09:06:31;0.30;;;0.30;;
61112;SDS011;47184;57.998;56.184;2023-08-17T09:09:00;0.30;;;0.30;;
61112;SDS011;47184;57.998;56.184;2023-08-17T09:11:28;0.30;;;0.30;;
61112;SDS011;47184;57.998;56.184;2023-08-17T09:13:56;0.40;;;0.40;;
61112;SDS011;47184;57.998;56.184;2023-08-17T09:16:22;0.40;;;0.40;;
61112;SDS011;47184;57.998;56.184;2023-08-17T09:18:48;0.40;;;0.40;;
61112;SDS011;47184;57.998;56.184;2023-08-17T09:21:21;0.40;;;0.40;;
61112;SDS011;47184;57.998;56.184;2023-08-17T09:23:53;0.40;;;0.40;;
61112;SDS011;47184;57.998;56.184;2023-08-17T09:26:20;0.40;;;0.40;;
61112;SDS011;47184;57.998;56.184;2023-08-17T09:28:50;0.40;;;0.40;;
61112;SDS011;47184;57.998;56.184;2023-08-17T09:31:21;0.70;;;0.70;;
61112;SDS011;47184;57.998;56.184;2023-08-17T09:33:50;0.50;;;0.50;;
61112;SDS011;47184;57.998;56.184;2023-08-17T09:36:20;0.60;;;0.60;;
61112;SDS011;47184;57.998;56.184;2023-08-17T09:38:48;0.50;;;0.50;;
61112;SDS011;47184;57.998;56.184;2023-08-17T09:41:17;0.60;;;0.60;;
61112;SDS011;47184;57.998;56.184;2023-08-17T09:43:45;0.60;;;0.60;;
61112;SDS011;47184;57.998;56.184;2023-08-17T09:46:12;0.52;;;0.52;;
61112;SDS011;47184;57.998;56.184;2023-08-17T09:48:38;0.50;;;0.50;;
61112;SDS011;47184;57.998;56.184;2023-08-17T09:51:05;0.63;;;0.63;;
61112;SDS011;47184;57.998;56.184;2023-08-17T09:53:34;0.70;;;0.70;;
61112;SDS011;47184;57.998;56.184;2023-08-17T09:56:03;0.50;;;0.50;;
61112;SDS011;47184;57.998;56.184;2023-08-17T09:58:30;0.60;;;0.60;;
61112;SDS011;47184;57.998;56.184;2023-08-17T10:00:56;0.50;;;0.50;;
61112;SDS011;47184;57.998;56.184;2023-08-17T10:03:24;0.60;;;0.60;;
61112;SDS011;47184;57.998;56.184;2023-08-17T10:05:58;0.70;;;0.70;;
61112;SDS011;47184;57.998;56.184;2023-08-17T10:08:27;1.00;;;1.00;;
61112;SDS011;47184;57.998;56.184;2023-08-17T10:10:57;1.00;;;1.00;;
61112;SDS011;47184;57.998;56.184;2023-08-17T10:16:13;0.90;;;0.90;;
61112;SDS011;47184;57.998;56.184;2023-08-17T10:18:45;1.00;;;1.00;;
61112;SDS011;47184;57.998;56.184;2023-08-17T10:21:21;0.77;;;0.77;;
61112;SDS011;47184;57.998;56.184;2023-08-17T10:23:53;0.90;;;0.90;;
61112;SDS011;47184;57.998;56.184;2023-08-17T10:26:20;0.82;;;0.82;;
61112;SDS011;47184;57.998;56.184;2023-08-17T10:28:47;0.90;;;0.90;;
61112;SDS011;47184;57.998;56.184;2023-08-17T10:31:14;0.95;;;0.95;;
61112;SDS011;47184;57.998;56.184;2023-08-17T10:33:40;0.90;;;0.90;;
61112;SDS011;47184;57.998;56.184;2023-08-17T10:36:10;0.90;;;0.90;;
61112;SDS011;47184;57.998;56.184;2023-08-17T10:38:38;1.20;;;1.20;;
61112;SDS011;47184;57.998;56.184;2023-08-17T10:41:07;1.02;;;1.02;;
61112;SDS011;47184;57.998;56.184;2023-08-17T10:43:53;0.95;;;0.95;;
61112;SDS011;47184;57.998;56.184;2023-08-17T10:46:20;1.10;;;1.10;;
61112;SDS011;47184;57.998;56.184;2023-08-17T10:48:46;1.02;;;1.02;;
61112;SDS011;47184;57.998;56.184;2023-08-17T10:51:12;0.80;;;0.80;;
61112;SDS011;47184;57.998;56.184;2023-08-17T10:53:39;0.88;;;0.88;;
61112;SDS011;47184;57.998;56.184;2023-08-17T10:56:11;0.80;;;0.80;;
61112;SDS011;47184;57.998;56.184;2023-08-17T10:58:39;0.98;;;0.98;;
61112;SDS011;47184;57.998;56.184;2023-08-17T11:01:06;0.80;;;0.80;;
61112;SDS011;47184;57.998;56.184;2023-08-17T11:03:32;0.80;;;0.80;;
61112;SDS011;47184;57.998;56.184;2023-08-17T11:06:13;0.93;;;0.93;;
61112;SDS011;47184;57.998;56.184;2023-08-17T11:08:53;1.10;;;1.10;;
61112;SDS011;47184;57.998;56.184;2023-08-17T11:11:21;0.80;;;0.80;;
61112;SDS011;47184;57.998;56.184;2023-08-17T11:13:48;1.05;;;1.05;;
61112;SDS011;47184;57.998;56.184;2023-08-17T11:16:16;1.13;;;1.13;;
61112;SDS011;47184;57.998;56.184;2023-08-17T11:18:45;0.90;;;0.90;;
61112;SDS011;47184;57.998;56.184;2023-08-17T11:21:12;0.85;;;0.85;;
61112;SDS011;47184;57.998;56.184;2023-08-17T11:23:40;0.90;;;0.90;;
61112;SDS011;47184;57.998;56.184;2023-08-17T11:26:06;1.02;;;1.02;;
61112;SDS011;47184;57.998;56.184;2023-08-17T11:28:33;0.90;;;0.90;;
61112;SDS011;47184;57.998;56.184;2023-08-17T11:31:07;1.13;;;1.13;;
61112;SDS011;47184;57.998;56.184;2023-08-17T11:33:35;1.00;;;1.00;;
61112;SDS011;47184;57.998;56.184;2023-08-17T11:36:02;1.08;;;1.08;;
61112;SDS011;47184;57.998;56.184;2023-08-17T11:38:32;1.15;;;1.15;;
61112;SDS011;47184;57.998;56.184;2023-08-17T11:40:59;1.10;;;1.10;;
61112;SDS011;47184;57.998;56.184;2023-08-17T11:43:26;0.90;;;0.90;;
61112;SDS011;47184;57.998;56.184;2023-08-17T11:45:57;1.10;;;1.10;;
61112;SDS011;47184;57.998;56.184;2023-08-17T11:48:23;1.00;;;1.00;;
61112;SDS011;47184;57.998;56.184;2023-08-17T11:50:50;0.90;;;0.90;;
61112;SDS011;47184;57.998;56.184;2023-08-17T11:53:16;1.10;;;1.10;;
61112;SDS011;47184;57.998;56.184;2023-08-17T11:55:43;1.20;;;1.20;;
61112;SDS011;47184;57.998;56.184;2023-08-17T11:58:09;0.98;;;0.98;;
61112;SDS011;47184;57.998;56.184;2023-08-17T12:00:36;0.85;;;0.85;;
61112;SDS011;47184;57.998;56.184;2023-08-17T12:05:32;0.90;;;0.90;;
61112;SDS011;47184;57.998;56.184;2023-08-17T12:08:01;0.90;;;0.90;;
61112;SDS011;47184;57.998;56.184;2023-08-17T12:10:28;0.90;;;0.90;;
61112;SDS011;47184;57.998;56.184;2023-08-17T12:12:58;0.98;;;0.98;;
61112;SDS011;47184;57.998;56.184;2023-08-17T12:15:29;0.88;;;0.88;;
61112;SDS011;47184;57.998;56.184;2023-08-17T12:17:59;1.10;;;1.10;;
61112;SDS011;47184;57.998;56.184;2023-08-17T12:20:26;0.95;;;0.95;;
61112;SDS011;47184;57.998;56.184;2023-08-17T12:22:53;0.75;;;0.75;;
61112;SDS011;47184;57.998;56.184;2023-08-17T12:25:23;1.00;;;1.00;;
61112;SDS011;47184;57.998;56.184;2023-08-17T12:27:49;0.90;;;0.90;;
61112;SDS011;47184;57.998;56.184;2023-08-17T12:30:25;1.20;;;1.20;;
61112;SDS011;47184;57.998;56.184;2023-08-17T12:32:54;1.13;;;1.13;;
61112;SDS011;47184;57.998;56.184;2023-08-17T12:35:20;1.00;;;1.00;;
61112;SDS011;47184;57.998;56.184;2023-08-17T12:37:50;0.80;;;0.80;;
61112;SDS011;47184;57.998;56.184;2023-08-17T12:40:20;0.70;;;0.70;;
61112;SDS011;47184;57.998;56.184;2023-08-17T12:42:47;0.88;;;0.88;;
61112;SDS011;47184;57.998;56.184;2023-08-17T12:45:14;0.90;;;0.90;;
61112;SDS011;47184;57.998;56.184;2023-08-17T12:47:40;0.70;;;0.70;;
61112;SDS011;47184;57.998;56.184;2023-08-17T12:50:07;0.85;;;0.85;;
61112;SDS011;47184;57.998;56.184;2023-08-17T12:52:34;0.73;;;0.73;;
61112;SDS011;47184;57.998;56.184;2023-08-17T12:55:00;0.85;;;0.85;;
61112;SDS011;47184;57.998;56.184;2023-08-17T12:57:26;0.73;;;0.73;;
61112;SDS011;47184;57.998;56.184;2023-08-17T12:59:52;0.80;;;0.80;;
61112;SDS011;47184;57.998;56.184;2023-08-17T13:02:22;0.75;;;0.75;;
61112;SDS011;47184;57.998;56.184;2023-08-17T13:04:49;0.70;;;0.70;;
61112;SDS011;47184;57.998;56.184;2023-08-17T13:07:15;0.60;;;0.60;;
61112;SDS011;47184;57.998;56.184;2023-08-17T13:09:42;0.70;;;0.70;;
61112;SDS011;47184;57.998;56.184;2023-08-17T13:12:08;0.60;;;0.60;;
61112;SDS011;47184;57.998;56.184;2023-08-17T13:14:34;0.68;;;0.68;;
61112;SDS011;47184;57.998;56.184;2023-08-17T13:17:00;0.70;;;0.70;;
61112;SDS011;47184;57.998;56.184;2023-08-17T13:19:26;0.60;;;0.60;;
61112;SDS011;47184;57.998;56.184;2023-08-17T13:21:52;0.50;;;0.50;;
61112;SDS011;47184;57.998;56.184;2023-08-17T13:24:18;0.50;;;0.50;;
61112;SDS011;47184;57.998;56.184;2023-08-17T13:26:44;0.60;;;0.60;;
61112;SDS011;47184;57.998;56.184;2023-08-17T13:29:10;0.35;;;0.35;;
61112;SDS011;47184;57.998;56.184;2023-08-17T13:31:36;0.30;;;0.30;;
61112;SDS011;47184;57.998;56.184;2023-08-17T13:34:02;0.20;;;0.20;;
61112;SDS011;47184;57.998;56.184;2023-08-17T13:36:29;0.20;;;0.20;;
61112;SDS011;47184;57.998;56.184;2023-08-17T13:38:55;0.20;;;0.20;;
61112;SDS011;47184;57.998;56.184;2023-08-17T13:41:21;0.10;;;0.10;;
61112;SDS011;47184;57.998;56.184;2023-08-17T13:43:50;0.20;;;0.20;;
61112;SDS011;47184;57.998;56.184;2023-08-17T13:46:16;0.10;;;0.10;;
61112;SDS011;47184;57.998;56.184;2023-08-17T13:48:42;0.10;;;0.10;;
61112;SDS011;47184;57.998;56.184;2023-08-17T13:51:08;0.20;;;0.20;;
61112;SDS011;47184;57.998;56.184;2023-08-17T13:53:34;0.13;;;0.13;;
61112;SDS011;47184;57.998;56.184;2023-08-17T13:56:00;0.10;;;0.10;;
61112;SDS011;47184;57.998;56.184;2023-08-17T13:58:28;0.10;;;0.10;;
61112;SDS011;47184;57.998;56.184;2023-08-17T14:00:54;0.17;;;0.17;;
61112;SDS011;47184;57.998;56.184;2023-08-17T14:03:20;0.10;;;0.10;;
61112;SDS011;47184;57.998;56.184;2023-08-17T14:05:46;0.10;;;0.10;;
61112;SDS011;47184;57.998;56.184;2023-08-17T14:08:12;0.00;;;0.00;;
61112;SDS011;47184;57.998;56.184;2023-08-17T14:10:39;0.10;;;0.10;;
61112;SDS011;47184;57.998;56.184;2023-08-17T14:13:05;0.10;;;0.10;;
61112;SDS011;47184;57.998;56.184;2023-08-17T14:15:31;0.10;;;0.10;;
61112;SDS011;47184;57.998;56.184;2023-08-17T14:17:57;0.10;;;0.10;;
61112;SDS011;47184;57.998;56.184;2023-08-17T14:20:30;0.08;;;0.00;;
61112;SDS011;47184;57.998;56.184;2023-08-17T14:22:56;0.00;;;0.00;;
61112;SDS011;47184;57.998;56.184;2023-08-17T14:25:22;0.00;;;0.00;;
61112;SDS011;47184;57.998;56.184;2023-08-17T14:27:51;0.00;;;0.00;;
61112;SDS011;47184;57.998;56.184;2023-08-17T14:30:20;0.00;;;0.00;;
61112;SDS011;47184;57.998;56.184;2023-08-17T14:32:46;0.00;;;0.00;;
61112;SDS011;47184;57.998;56.184;2023-08-17T14:35:12;0.00;;;0.00;;
61112;SDS011;47184;57.998;56.184;2023-08-17T14:37:38;0.00;;;0.00;;
61112;SDS011;47184;57.998;56.184;2023-08-17T14:40:07;0.00;;;0.00;;
61112;SDS011;47184;57.998;56.184;2023-08-17T14:42:37;0.00;;;0.00;;
61112;SDS011;47184;57.998;56.184;2023-08-17T14:45:11;0.00;;;0.00;;